Terminal Aerodrome Forecast
Issued by NWS Grand Forks, ND

Home | Current Version | Previous Version | Text Only | Print | Product List | Glossary Off
Versions: 1 2 3 4 5 6 7 8 9 10 11 12 13

000
FTUS43 KFGF 172320
TAFGFK
TAF
KGFK 172320Z 1800/1824 21012KT P6SM FEW250 WS020/24040KT
     FM181100 23011KT P6SM FEW250 WS020/28040KT
     FM181400 28017KT P6SM SCT250
     FM181700 28024G36KT P6SM FEW250
     FM182300 27017G25KT P6SM SKC=

USA.gov is the U.S. government's official web portal to all federal, state and local government web resources and services.